Time;durP1;ratioP1;P1;durP2;ratioP2;P2;SDS_P1;SDS_P2;PMS_P1;PMS_P2;Temp;Humidity;BMP_temperature;BMP_pressure;BME280_temperature;BME280_humidity;BME280_pressure;Samples;Min_cycle;Max_cycle;Signal;HPM_P1;HPM_P2
2023/03/01 00:01:53;;;;;;;32.83;15.77;;;-0.20;99.90;;;;;;20872080;28;20060;-79
2023/03/01 00:11:54;;;;;;;40.85;16.52;;;-0.10;99.90;;;;;;20874750;28;20037;-79
2023/03/01 00:21:56;;;;;;;33.80;16.13;;;-0.10;99.90;;;;;;20912938;28;20420;-78
2023/03/01 00:31:57;;;;;;;33.47;16.45;;;0.00;99.90;;;;;;20910539;28;20031;-82
2023/03/01 00:41:58;;;;;;;35.78;15.68;;;0.20;99.90;;;;;;20869589;28;20030;-80
2023/03/01 00:51:58;;;;;;;34.33;14.90;;;0.20;99.90;;;;;;20835212;28;20036;-79
2023/03/01 01:01:59;;;;;;;30.67;14.60;;;0.30;99.90;;;;;;20823463;28;20045;-80
2023/03/01 01:12:00;;;;;;;34.10;14.60;;;0.40;99.90;;;;;;20821395;28;20040;-78
2023/03/01 01:22:01;;;;;;;33.50;15.98;;;0.50;99.90;;;;;;20821712;28;20167;-82
2023/03/01 01:32:01;;;;;;;34.53;15.63;;;0.50;99.90;;;;;;20821554;28;20029;-80
2023/03/01 01:42:02;;;;;;;38.72;15.63;;;0.60;99.90;;;;;;20821587;28;20041;-80
2023/03/01 01:52:24;;;;;;;31.52;15.20;;;0.70;99.90;;;;;;20838856;28;20053;-79
2023/03/01 02:02:25;;;;;;;31.63;14.82;;;0.80;99.90;;;;;;20836247;28;20551;-79
2023/03/01 02:12:26;;;;;;;34.22;14.85;;;1.10;99.90;;;;;;20837397;28;20449;-78
2023/03/01 02:22:32;;;;;;;34.67;14.75;;;1.10;99.90;;;;;;20835665;28;20092;-80
2023/03/01 02:32:35;;;;;;;34.83;14.10;;;1.10;99.90;;;;;;20817381;28;20615;-81
2023/03/01 02:42:51;;;;;;;34.40;14.85;;;1.20;99.90;;;;;;20817683;28;20570;-81
2023/03/01 02:53:15;;;;;;;34.58;14.80;;;1.20;99.90;;;;;;20842757;28;20120;-80
2023/03/01 03:03:20;;;;;;;32.40;15.07;;;1.20;99.90;;;;;;20895175;28;20571;-80
2023/03/01 03:13:21;;;;;;;32.28;14.82;;;1.20;99.90;;;;;;20916122;28;20021;-84
2023/03/01 03:23:23;;;;;;;39.22;15.52;;;1.20;99.90;;;;;;20813819;28;20535;-78
2023/03/01 03:33:24;;;;;;;35.42;15.13;;;1.20;99.90;;;;;;20830983;28;20041;-81
2023/03/01 03:43:25;;;;;;;33.22;14.98;;;1.20;99.90;;;;;;20830790;28;20030;-80
2023/03/01 03:53:28;;;;;;;36.78;16.30;;;1.20;99.90;;;;;;20829577;28;20044;-80
2023/03/01 04:03:31;;;;;;;31.70;14.10;;;1.30;99.90;;;;;;20829469;28;20037;-80
2023/03/01 04:13:32;;;;;;;34.13;15.80;;;1.20;99.90;;;;;;20882507;28;20025;-80
2023/03/01 04:23:33;;;;;;;37.45;15.25;;;1.20;99.90;;;;;;20892488;28;20036;-79
2023/03/01 04:33:34;;;;;;;36.75;16.40;;;1.30;99.90;;;;;;20909613;28;20392;-80
2023/03/01 04:43:35;;;;;;;34.10;14.35;;;1.30;99.90;;;;;;20851899;28;20026;-80
2023/03/01 04:53:38;;;;;;;38.25;16.05;;;1.30;99.90;;;;;;20827289;28;20043;-80
2023/03/01 05:03:39;;;;;;;38.10;15.82;;;1.30;99.90;;;;;;20816179;28;20057;-78
2023/03/01 05:13:40;;;;;;;36.25;15.02;;;1.40;99.90;;;;;;20809017;28;20056;-80
2023/03/01 05:23:41;;;;;;;37.65;15.20;;;1.40;99.90;;;;;;20891314;28;20388;-78
2023/03/01 05:33:43;;;;;;;38.33;15.30;;;1.40;99.90;;;;;;20909466;28;20040;-79
2023/03/01 05:43:44;;;;;;;35.78;15.30;;;1.40;99.90;;;;;;20867608;28;20061;-79
2023/03/01 05:53:45;;;;;;;33.33;15.48;;;1.40;99.90;;;;;;20812821;28;20022;-79
2023/03/01 06:03:46;;;;;;;37.42;15.65;;;1.30;99.90;;;;;;20825374;28;20468;-81
2023/03/01 06:13:47;;;;;;;41.00;16.50;;;1.40;99.90;;;;;;20833600;28;20033;-79
2023/03/01 06:23:47;;;;;;;39.42;16.77;;;1.30;99.90;;;;;;20910275;28;20122;-80
2023/03/01 06:33:48;;;;;;;35.70;15.80;;;1.40;99.90;;;;;;20920427;28;20369;-79
2023/03/01 06:43:49;;;;;;;41.75;16.77;;;1.20;99.90;;;;;;20860328;28;20079;-79
2023/03/01 06:53:50;;;;;;;38.75;16.10;;;1.30;99.90;;;;;;20832777;28;20053;-77
2023/03/01 07:03:50;;;;;;;36.97;16.83;;;1.20;99.90;;;;;;20815010;28;20030;-79
2023/03/01 07:13:51;;;;;;;40.25;16.67;;;1.20;99.90;;;;;;20831846;28;20484;-81
2023/03/01 07:23:52;;;;;;;41.28;17.10;;;1.30;99.90;;;;;;20831241;28;20068;-79
2023/03/01 07:33:53;;;;;;;36.58;15.57;;;1.40;99.90;;;;;;20836119;28;20024;-79
2023/03/01 07:43:54;;;;;;;46.15;16.65;;;1.40;99.90;;;;;;20821819;28;20037;-78
2023/03/01 07:53:55;;;;;;;33.25;16.23;;;1.40;99.90;;;;;;20819650;28;20026;-78
2023/03/01 08:03:56;;;;;;;43.67;16.58;;;1.40;99.90;;;;;;20827134;28;20112;-79
2023/03/01 08:13:57;;;;;;;37.42;16.38;;;1.50;99.90;;;;;;20827169;28;20048;-79
2023/03/01 08:23:58;;;;;;;103.95;42.70;;;1.40;99.90;;;;;;20809934;28;20072;-78
2023/03/01 08:34:01;;;;;;;39.28;17.23;;;1.50;99.90;;;;;;20827174;28;20504;-79
2023/03/01 08:44:03;;;;;;;40.30;15.57;;;1.50;99.90;;;;;;20825527;28;20477;-79
2023/03/01 08:54:10;;;;;;;42.45;16.00;;;1.50;99.90;;;;;;20824212;28;20095;-78
2023/03/01 09:04:12;;;;;;;39.85;16.35;;;1.50;99.90;;;;;;20824034;28;20033;-82
2023/03/01 09:14:14;;;;;;;37.45;15.43;;;1.50;99.90;;;;;;20816561;28;20039;-77
2023/03/01 09:24:14;;;;;;;46.22;16.35;;;1.50;99.90;;;;;;20840317;28;20037;-80
2023/03/01 09:34:22;;;;;;;35.45;16.20;;;1.50;99.90;;;;;;20839143;28;20429;-79
2023/03/01 09:44:44;;;;;;;37.28;16.02;;;1.60;99.90;;;;;;20838375;28;20044;-78
2023/03/01 09:54:46;;;;;;;35.28;14.73;;;1.60;99.90;;;;;;20837412;28;20025;-78
2023/03/01 10:04:49;;;;;;;38.38;16.17;;;1.60;99.90;;;;;;20818761;28;20037;-79
2023/03/01 10:15:33;;;;;;;35.55;15.80;;;1.60;99.90;;;;;;20896689;28;20391;-78
2023/03/01 10:25:47;;;;;;;33.30;15.27;;;1.70;99.90;;;;;;20592679;28;20039;-80
2023/03/01 10:35:48;;;;;;;34.00;14.98;;;1.70;99.90;;;;;;20593954;28;20065;-79
2023/03/01 10:45:49;;;;;;;32.85;14.90;;;1.80;99.90;;;;;;20591664;28;20078;-79
2023/03/01 10:55:58;;;;;;;34.72;15.00;;;1.90;99.90;;;;;;20742915;28;20057;-80
2023/03/01 11:06:02;;;;;;;32.15;14.88;;;1.90;99.90;;;;;;20762705;28;20065;-80
2023/03/01 11:16:12;;;;;;;38.05;14.63;;;1.90;99.90;;;;;;20838773;28;20036;-80
2023/03/01 11:26:15;;;;;;;35.85;15.10;;;2.20;99.90;;;;;;20839423;28;20658;-80
2023/03/01 11:36:37;;;;;;;32.97;14.05;;;2.20;99.90;;;;;;20754540;28;20037;-79
2023/03/01 11:46:56;;;;;;;34.90;14.38;;;2.30;99.90;;;;;;20847247;28;20029;-80
2023/03/01 11:57:18;;;;;;;38.25;16.17;;;2.20;99.90;;;;;;20853835;28;20038;-81
2023/03/01 12:07:18;;;;;;;;;;;2.20;99.90;;;;;;20860533;28;20037;-81
2023/03/01 12:17:31;;;;;;;37.87;14.30;;;2.30;99.90;;;;;;20837925;28;19920;-79
2023/03/01 12:27:53;;;;;;;33.40;14.95;;;2.40;99.90;;;;;;20873513;28;20116;-80
2023/03/01 12:37:56;;;;;;;33.70;14.55;;;2.50;99.90;;;;;;20888296;28;20033;-80
2023/03/01 12:48:15;;;;;;;33.92;14.05;;;2.40;99.90;;;;;;20837445;28;20041;-80
2023/03/01 12:58:40;;;;;;;30.00;13.65;;;2.60;99.90;;;;;;20795092;28;20033;-80
2023/03/01 13:09:35;;;;;;;34.30;14.10;;;2.80;99.90;;;;;;20824189;28;20033;-80
2023/03/01 13:19:36;;;;;;;32.40;13.50;;;3.00;99.90;;;;;;20846815;28;20044;-80
2023/03/01 13:29:55;;;;;;;28.30;13.50;;;3.10;99.90;;;;;;20932575;28;20040;-80
2023/03/01 13:39:58;;;;;;;45.03;17.58;;;3.00;99.90;;;;;;20932126;28;20030;-80
2023/03/01 13:50:02;;;;;;;32.30;14.55;;;3.10;99.90;;;;;;20865037;28;20037;-79
2023/03/01 14:00:04;;;;;;;37.28;15.23;;;3.10;99.90;;;;;;20848885;28;20040;-80
2023/03/01 14:10:07;;;;;;;41.33;16.83;;;3.20;99.90;;;;;;20894232;28;20032;-80
2023/03/01 14:20:20;;;;;;;43.92;16.48;;;3.00;99.90;;;;;;20951139;28;20102;-80
2023/03/01 14:30:22;;;;;;;43.92;19.20;;;3.20;99.90;;;;;;20790522;28;20056;-80
2023/03/01 14:40:35;;;;;;;34.63;16.55;;;3.20;99.90;;;;;;20868171;28;20040;-79
2023/03/01 14:50:41;;;;;;;36.20;17.05;;;3.00;99.90;;;;;;20867589;28;20087;-82
2023/03/01 15:00:54;;;;;;;32.47;14.68;;;3.00;99.90;;;;;;20870731;28;20025;-80
2023/03/01 15:11:16;;;;;;;35.47;14.65;;;3.10;99.90;;;;;;20872055;28;20089;-79
2023/03/01 15:21:37;;;;;;;33.22;15.00;;;3.10;99.90;;;;;;20839125;28;20057;-80
2023/03/01 15:31:41;;;;;;;;;;;3.30;99.90;;;;;;20849171;28;20044;-80
2023/03/01 15:41:48;;;;;;;57.95;22.80;;;3.20;99.90;;;;;;20853175;28;19909;-81
2023/03/01 15:51:49;;;;;;;36.63;16.08;;;3.40;99.90;;;;;;20813740;28;20038;-79
2023/03/01 16:01:50;;;;;;;47.05;20.10;;;3.10;99.90;;;;;;20794752;28;20030;-81
2023/03/01 16:11:53;;;;;;;33.97;14.93;;;3.20;99.90;;;;;;20834821;28;20040;-80
2023/03/01 16:21:53;;;;;;;31.88;15.38;;;3.10;99.90;;;;;;20904695;28;20245;-79
2023/03/01 16:31:54;;;;;;;33.70;15.52;;;2.90;99.90;;;;;;20921849;28;20041;-80
2023/03/01 16:41:55;;;;;;;36.00;16.90;;;2.90;99.90;;;;;;20896957;28;20042;-80
2023/03/01 16:51:56;;;;;;;31.13;14.48;;;2.70;99.90;;;;;;20854952;28;20522;-81
2023/03/01 17:01:57;;;;;;;34.85;14.40;;;2.50;99.90;;;;;;20869440;28;20030;-81
2023/03/01 17:11:57;;;;;;;36.28;15.82;;;2.30;99.90;;;;;;20849815;28;20037;-80
2023/03/01 17:21:59;;;;;;;35.13;14.70;;;2.10;99.90;;;;;;20846675;28;20221;-80
2023/03/01 17:32:01;;;;;;;39.45;16.65;;;1.60;99.90;;;;;;20862951;28;20396;-80
2023/03/01 17:42:04;;;;;;;39.83;15.98;;;1.30;99.90;;;;;;20875222;28;20033;-78
2023/03/01 17:52:04;;;;;;;70.70;29.38;;;1.20;99.90;;;;;;20873334;28;20552;-79
2023/03/01 18:02:05;;;;;;;35.55;15.07;;;1.10;99.90;;;;;;20847622;28;20030;-80
2023/03/01 18:12:06;;;;;;;62.65;24.13;;;1.00;99.90;;;;;;20872594;28;20504;-79
2023/03/01 18:22:08;;;;;;;64.88;26.10;;;1.10;99.90;;;;;;20832481;28;20112;-81
2023/03/01 18:32:08;;;;;;;39.88;17.65;;;1.20;99.90;;;;;;20786304;28;20037;-81
2023/03/01 18:42:09;;;;;;;38.60;17.77;;;1.40;99.90;;;;;;20875671;28;20029;-79
2023/03/01 18:52:10;;;;;;;47.50;17.65;;;1.50;99.90;;;;;;20875980;28;20445;-81
2023/03/01 19:02:14;;;;;;;41.92;18.45;;;1.50;99.90;;;;;;20792416;28;20044;-79
2023/03/01 19:12:15;;;;;;;42.85;17.30;;;1.50;99.90;;;;;;20838317;28;20056;-80
2023/03/01 19:22:15;;;;;;;37.88;16.13;;;1.50;99.90;;;;;;20760531;28;20026;-79
2023/03/01 19:32:16;;;;;;;40.05;17.02;;;1.60;99.90;;;;;;20789534;28;20029;-80
2023/03/01 19:42:17;;;;;;;43.88;17.75;;;1.60;99.90;;;;;;20817464;28;20503;-81
2023/03/01 19:52:18;;;;;;;39.80;18.55;;;1.60;99.90;;;;;;20832980;28;20033;-81
2023/03/01 20:02:19;;;;;;;38.58;17.98;;;1.60;99.90;;;;;;20893277;28;20032;-81
2023/03/01 20:12:19;;;;;;;42.55;19.23;;;1.60;99.90;;;;;;20852945;28;20037;-79
2023/03/01 20:22:20;;;;;;;44.20;18.45;;;1.70;99.90;;;;;;20855721;28;20116;-81
2023/03/01 20:32:21;;;;;;;40.15;17.67;;;1.70;99.90;;;;;;20863202;28;20033;-81
2023/03/01 20:42:22;;;;;;;48.90;16.88;;;1.60;99.90;;;;;;20862212;28;20109;-80
2023/03/01 20:52:23;;;;;;;44.13;17.67;;;1.60;99.90;;;;;;20877098;28;20064;-80
2023/03/01 21:02:23;;;;;;;42.58;17.10;;;1.60;99.90;;;;;;20877206;28;20397;-79
2023/03/01 21:12:24;;;;;;;37.30;16.00;;;1.50;99.90;;;;;;20846930;28;20388;-78
2023/03/01 21:22:25;;;;;;;39.90;17.33;;;1.40;99.90;;;;;;20840984;28;20125;-81
2023/03/01 21:32:26;;;;;;;47.95;18.20;;;1.30;99.90;;;;;;20907099;28;20025;-81
2023/03/01 21:42:27;;;;;;;39.10;17.52;;;1.50;99.90;;;;;;20887754;28;20032;-80
2023/03/01 21:52:28;;;;;;;47.15;19.20;;;1.50;99.90;;;;;;20880550;28;20057;-80
2023/03/01 22:02:30;;;;;;;47.95;20.98;;;1.50;99.90;;;;;;20935262;28;20036;-80
2023/03/01 22:12:31;;;;;;;44.40;18.85;;;1.50;99.90;;;;;;20865184;28;20033;-79
2023/03/01 22:22:32;;;;;;;45.60;19.35;;;1.50;99.90;;;;;;20905966;28;20033;-81
2023/03/01 22:32:33;;;;;;;47.22;20.85;;;1.70;99.90;;;;;;20870072;28;20384;-80
2023/03/01 22:42:34;;;;;;;47.80;20.10;;;1.70;99.90;;;;;;20849232;28;20075;-80
2023/03/01 22:52:34;;;;;;;47.28;20.48;;;1.80;99.90;;;;;;20845862;28;20099;-79
2023/03/01 23:02:36;;;;;;;38.78;17.77;;;1.80;99.90;;;;;;20850074;28;20506;-80
2023/03/01 23:12:37;;;;;;;45.38;20.38;;;1.70;99.90;;;;;;20846926;28;20026;-79
2023/03/01 23:22:38;;;;;;;47.88;20.23;;;1.70;99.90;;;;;;20840919;28;20045;-81
2023/03/01 23:32:39;;;;;;;47.55;20.48;;;1.70;99.90;;;;;;20838882;28;20044;-80
2023/03/01 23:42:40;;;;;;;44.22;18.17;;;1.70;99.90;;;;;;20874130;28;20480;-80
2023/03/01 23:52:41;;;;;;;47.65;20.40;;;1.70;99.90;;;;;;20928746;28;20573;-79
